sensor_id;sensor_type;location;lat;lon;timestamp;temperature;humidity
14775;DHT22;7479;47.042;15.160;2022-12-07T09:17:09;1.90;99.90
14775;DHT22;7479;47.042;15.160;2022-12-07T09:22:04;2.00;99.90
14775;DHT22;7479;47.042;15.160;2022-12-07T09:26:58;2.20;99.90
14775;DHT22;7479;47.042;15.160;2022-12-07T09:31:52;2.40;99.90
14775;DHT22;7479;47.042;15.160;2022-12-07T09:36:47;2.50;99.90
14775;DHT22;7479;47.042;15.160;2022-12-07T09:41:43;2.60;99.90
14775;DHT22;7479;47.042;15.160;2022-12-07T09:46:40;2.60;99.90
14775;DHT22;7479;47.042;15.160;2022-12-07T09:51:35;2.80;99.90
14775;DHT22;7479;47.042;15.160;2022-12-07T09:56:30;3.00;99.90
14775;DHT22;7479;47.042;15.160;2022-12-07T10:01:24;3.10;99.90
14775;DHT22;7479;47.042;15.160;2022-12-07T10:06:18;3.20;99.90
14775;DHT22;7479;47.042;15.160;2022-12-07T10:11:12;3.20;99.90
14775;DHT22;7479;47.042;15.160;2022-12-07T10:16:32;3.30;99.90
14775;DHT22;7479;47.042;15.160;2022-12-07T10:21:28;3.40;99.90
14775;DHT22;7479;47.042;15.160;2022-12-07T10:26:29;3.60;99.90
14775;DHT22;7479;47.042;15.160;2022-12-07T10:31:25;3.80;99.90
14775;DHT22;7479;47.042;15.160;2022-12-07T10:36:23;4.10;99.90
14775;DHT22;7479;47.042;15.160;2022-12-07T10:41:18;4.40;99.90
14775;DHT22;7479;47.042;15.160;2022-12-07T10:46:53;4.70;99.90
14775;DHT22;7479;47.042;15.160;2022-12-07T10:51:55;4.90;99.90
14775;DHT22;7479;47.042;15.160;2022-12-07T11:02:25;5.20;99.90
14775;DHT22;7479;47.042;15.160;2022-12-07T11:07:34;5.70;99.90
14775;DHT22;7479;47.042;15.160;2022-12-07T11:12:46;6.30;99.90
14775;DHT22;7479;47.042;15.160;2022-12-07T11:17:49;6.80;99.90
14775;DHT22;7479;47.042;15.160;2022-12-07T11:22:51;7.10;99.90
14775;DHT22;7479;47.042;15.160;2022-12-07T11:27:51;7.20;99.90
14775;DHT22;7479;47.042;15.160;2022-12-07T11:33:06;6.70;99.90
14775;DHT22;7479;47.042;15.160;2022-12-07T11:38:14;6.40;99.90
14775;DHT22;7479;47.042;15.160;2022-12-07T11:43:22;6.20;99.90
14775;DHT22;7479;47.042;15.160;2022-12-07T11:48:28;6.20;99.90
14775;DHT22;7479;47.042;15.160;2022-12-07T11:53:27;6.30;99.90
14775;DHT22;7479;47.042;15.160;2022-12-07T11:58:39;6.70;99.90
14775;DHT22;7479;47.042;15.160;2022-12-07T12:03:40;7.60;99.90
14775;DHT22;7479;47.042;15.160;2022-12-07T12:08:47;8.50;99.90
14775;DHT22;7479;47.042;15.160;2022-12-07T12:14:25;9.30;99.90
14775;DHT22;7479;47.042;15.160;2022-12-07T12:19:42;10.00;99.90
14775;DHT22;7479;47.042;15.160;2022-12-07T12:24:38;10.90;99.90
14775;DHT22;7479;47.042;15.160;2022-12-07T12:29:35;11.00;99.90
14775;DHT22;7479;47.042;15.160;2022-12-07T12:34:31;11.20;99.90
14775;DHT22;7479;47.042;15.160;2022-12-07T12:39:29;11.30;99.90
14775;DHT22;7479;47.042;15.160;2022-12-07T12:44:39;11.30;99.90
14775;DHT22;7479;47.042;15.160;2022-12-07T12:49:35;11.10;99.90
14775;DHT22;7479;47.042;15.160;2022-12-07T12:54:32;11.20;99.90
14775;DHT22;7479;47.042;15.160;2022-12-07T12:59:28;10.80;99.90
14775;DHT22;7479;47.042;15.160;2022-12-07T13:09:52;9.00;99.90
14775;DHT22;7479;47.042;15.160;2022-12-07T13:14:55;8.10;99.90
14775;DHT22;7479;47.042;15.160;2022-12-07T13:19:54;7.70;99.90
14775;DHT22;7479;47.042;15.160;2022-12-07T13:24:47;7.40;99.90
14775;DHT22;7479;47.042;15.160;2022-12-07T13:29:44;7.20;99.90
14775;DHT22;7479;47.042;15.160;2022-12-07T13:34:39;7.00;99.90
14775;DHT22;7479;47.042;15.160;2022-12-07T13:39:34;6.70;99.90
14775;DHT22;7479;47.042;15.160;2022-12-07T13:44:33;6.40;99.90
14775;DHT22;7479;47.042;15.160;2022-12-07T13:49:38;6.30;99.90
14775;DHT22;7479;47.042;15.160;2022-12-07T13:54:46;6.10;99.90
14775;DHT22;7479;47.042;15.160;2022-12-07T13:59:42;5.80;99.90
14775;DHT22;7479;47.042;15.160;2022-12-07T14:04:38;5.70;99.90
14775;DHT22;7479;47.042;15.160;2022-12-07T14:09:32;5.60;99.90
14775;DHT22;7479;47.042;15.160;2022-12-07T14:14:27;5.50;99.90
14775;DHT22;7479;47.042;15.160;2022-12-07T14:19:49;5.50;99.90
14775;DHT22;7479;47.042;15.160;2022-12-07T14:24:44;5.30;99.90
14775;DHT22;7479;47.042;15.160;2022-12-07T14:29:38;5.00;99.90
14775;DHT22;7479;47.042;15.160;2022-12-07T14:34:31;4.90;99.90
14775;DHT22;7479;47.042;15.160;2022-12-07T14:39:26;4.80;99.90
14775;DHT22;7479;47.042;15.160;2022-12-07T14:44:22;4.70;99.90
14775;DHT22;7479;47.042;15.160;2022-12-07T14:49:23;4.70;99.90
14775;DHT22;7479;47.042;15.160;2022-12-07T14:54:28;4.60;99.90
14775;DHT22;7479;47.042;15.160;2022-12-07T14:59:24;4.50;99.90
14775;DHT22;7479;47.042;15.160;2022-12-07T15:04:17;4.40;99.90
14775;DHT22;7479;47.042;15.160;2022-12-07T15:09:11;4.30;99.90
14775;DHT22;7479;47.042;15.160;2022-12-07T15:14:06;4.30;99.90
14775;DHT22;7479;47.042;15.160;2022-12-07T15:19:04;4.30;99.90
14775;DHT22;7479;47.042;15.160;2022-12-07T15:24:18;4.30;99.90
14775;DHT22;7479;47.042;15.160;2022-12-07T15:29:13;4.20;99.90
14775;DHT22;7479;47.042;15.160;2022-12-07T15:34:14;4.10;99.90
14775;DHT22;7479;47.042;15.160;2022-12-07T15:39:08;4.10;99.90
14775;DHT22;7479;47.042;15.160;2022-12-07T15:44:06;4.00;99.90
14775;DHT22;7479;47.042;15.160;2022-12-07T15:49:23;4.00;99.90
14775;DHT22;7479;47.042;15.160;2022-12-07T15:54:19;3.90;99.90
14775;DHT22;7479;47.042;15.160;2022-12-07T15:59:13;3.90;99.90
14775;DHT22;7479;47.042;15.160;2022-12-07T16:04:07;3.90;99.90
14775;DHT22;7479;47.042;15.160;2022-12-07T16:09:03;3.80;99.90
14775;DHT22;7479;47.042;15.160;2022-12-07T16:13:57;3.90;99.90
14775;DHT22;7479;47.042;15.160;2022-12-07T16:18:51;3.90;99.90
14775;DHT22;7479;47.042;15.160;2022-12-07T16:23:44;3.90;99.90
14775;DHT22;7479;47.042;15.160;2022-12-07T16:28:40;3.90;99.90
14775;DHT22;7479;47.042;15.160;2022-12-07T16:33:35;3.90;99.90
14775;DHT22;7479;47.042;15.160;2022-12-07T16:38:29;3.80;99.90
14775;DHT22;7479;47.042;15.160;2022-12-07T16:43:23;3.80;99.90
14775;DHT22;7479;47.042;15.160;2022-12-07T16:48:19;3.80;99.90
14775;DHT22;7479;47.042;15.160;2022-12-07T16:53:14;3.70;99.90
14775;DHT22;7479;47.042;15.160;2022-12-07T16:58:08;3.70;99.90
14775;DHT22;7479;47.042;15.160;2022-12-07T17:03:01;3.70;99.90
14775;DHT22;7479;47.042;15.160;2022-12-07T17:07:57;3.70;99.90
14775;DHT22;7479;47.042;15.160;2022-12-07T17:12:51;3.80;99.90
14775;DHT22;7479;47.042;15.160;2022-12-07T17:17:45;3.70;99.90
14775;DHT22;7479;47.042;15.160;2022-12-07T17:22:39;3.80;99.90
14775;DHT22;7479;47.042;15.160;2022-12-07T17:27:34;3.70;99.90
14775;DHT22;7479;47.042;15.160;2022-12-07T17:32:27;3.70;99.90
14775;DHT22;7479;47.042;15.160;2022-12-07T17:37:21;3.70;99.90
14775;DHT22;7479;47.042;15.160;2022-12-07T17:42:15;3.60;99.90
14775;DHT22;7479;47.042;15.160;2022-12-07T17:47:29;3.60;99.90
14775;DHT22;7479;47.042;15.160;2022-12-07T17:52:22;3.60;99.90
14775;DHT22;7479;47.042;15.160;2022-12-07T17:57:33;3.60;99.90
14775;DHT22;7479;47.042;15.160;2022-12-07T18:02:28;3.50;99.90
